Flight Track Log - Related Links

Times and Time Zones

All times are in EDT time to prevent confusion due to time zone crossing. See the TYR775 flight status page for this flight to view local times or setup timezone preferences in your user account.

Time Position Orientation Groundspeed Altitude Reporting Facility
EDT Latitude Longitude Course Direction KTS MPH feet Rate Location/Type
Tue 04:40:32 PM 47.9916 16.6803 148° Southeast  Level Estimated
Tue 04:41:32 PM 47.9141 16.7522 148° Southeast  Level Estimated
Tue 04:42:32 PM 47.8366 16.8238 148° Southeast  Level Estimated
Tue 04:43:32 PM 47.7590 16.8952 148° Southeast  Level Estimated
Tue 04:44:32 PM 47.6814 16.9664 148° Southeast  Level Estimated
Tue 04:45:32 PM 47.6038 17.0374 148° Southeast  Level Estimated
Tue 04:46:32 PM 47.5261 17.1082 148° Southeast  Level Estimated
Tue 04:47:32 PM 47.4484 17.1788 148° Southeast  Level Estimated
Tue 04:48:32 PM 47.3706 17.2492 149° Southeast  Level Estimated
Tue 04:49:32 PM 47.2928 17.3193 149° Southeast  Level Estimated
Tue 04:50:32 PM 47.2150 17.3893 149° Southeast  Level Estimated
Tue 04:51:32 PM 47.1371 17.4590 149° Southeast  Level Estimated
Tue 04:52:32 PM 47.0591 17.5286 149° Southeast  Level Estimated
Tue 04:53:32 PM 46.9811 17.5979 149° Southeast  Level Estimated
Tue 04:54:32 PM 46.9031 17.6671 149° Southeast  Level Estimated
Tue 04:55:32 PM 46.8250 17.7360 149° Southeast  Level Estimated
Tue 04:56:32 PM 46.7469 17.8047 149° Southeast  Level Estimated
Tue 04:57:32 PM 46.6688 17.8733 149° Southeast  Level Estimated
Tue 04:58:32 PM 46.5906 17.9416 149° Southeast  Level Estimated
Tue 04:59:32 PM 46.5123 18.0098 149° Southeast  Level Estimated
Tue 05:00:32 PM 46.4341 18.0777 149° Southeast  Level Estimated
Tue 05:01:32 PM 46.3558 18.1455 149° Southeast  Level Estimated
Tue 05:02:32 PM 46.2774 18.2130 149° Southeast  Level Estimated
Tue 05:03:32 PM 46.1990 18.2804 149° Southeast  Level Estimated
Tue 05:04:32 PM 46.1206 18.3476 149° Southeast  Level Estimated
Tue 05:05:32 PM 46.0421 18.4146 149° Southeast  Level Estimated
Tue 05:06:32 PM 45.9636 18.4814 149° Southeast  Level Estimated
Tue 05:07:32 PM 45.8851 18.5480 149° Southeast  Level Estimated
Tue 05:08:32 PM 45.8065 18.6144 150° Southeast  Level Estimated
Tue 05:09:32 PM 45.7278 18.6806 150° Southeast  Level Estimated
Tue 05:10:32 PM 45.6492 18.7467 150° Southeast  Level Estimated
Tue 05:11:32 PM 45.5705 18.8125 150° Southeast  Level Estimated
Tue 05:12:32 PM 45.4917 18.8782 150° Southeast  Level Estimated
Tue 05:13:32 PM 45.4130 18.9437 150° Southeast  Level Estimated
Tue 05:14:32 PM 45.3341 19.0090 150° Southeast  Level Estimated
Tue 05:15:32 PM 45.2553 19.0741 150° Southeast  Level Estimated
Tue 05:16:32 PM 45.1764 19.1391 150° Southeast  Level Estimated
Tue 05:17:32 PM 45.0975 19.2038 150° Southeast  Level Estimated
Tue 05:18:32 PM 45.0185 19.2684 150° Southeast  Level Estimated
Tue 05:19:32 PM 44.9395 19.3328 150° Southeast  Level Estimated
Tue 05:20:32 PM 44.8605 19.3971 150° Southeast  Level Estimated
Tue 05:21:32 PM 44.7814 19.4611 150° Southeast  Level Estimated
Tue 05:22:32 PM 44.7023 19.5250 150° Southeast  Level Estimated
Tue 05:23:32 PM 44.6232 19.5887 150° Southeast  Level Estimated
Tue 05:24:32 PM 44.5440 19.6522 150° Southeast  Level Estimated
Tue 05:25:32 PM 44.4648 19.7156 150° Southeast  Level Estimated
Tue 05:26:32 PM 44.3855 19.7788 150° Southeast  Level Estimated
Tue 05:27:32 PM 44.3063 19.8418 150° Southeast  Level Estimated
Tue 05:28:32 PM 44.2269 19.9047 150° Southeast  Level Estimated
Tue 05:29:32 PM 44.1476 19.9673 150° Southeast  Level Estimated
Tue 05:30:32 PM 44.0682 20.0299 151° Southeast  Level Estimated
Tue 05:31:32 PM 43.9888 20.0922 151° Southeast  Level Estimated
Tue 05:32:32 PM 43.9093 20.1544 151° Southeast  Level Estimated
Tue 05:33:32 PM 43.8298 20.2164 151° Southeast  Level Estimated
Tue 05:34:32 PM 43.7503 20.2782 151° Southeast  Level Estimated
Tue 05:35:32 PM 43.6708 20.3399 151° Southeast  Level Estimated
Tue 05:36:32 PM 43.5912 20.4014 151° Southeast  Level Estimated
Tue 05:37:32 PM 43.5116 20.4628 151° Southeast  Level Estimated
Tue 05:38:32 PM 43.4319 20.5240 151° Southeast  Level Estimated
Tue 05:39:32 PM 43.3522 20.5850 151° Southeast  Level Estimated
Tue 05:40:32 PM 43.2725 20.6459 151° Southeast  Level Estimated
Tue 05:41:32 PM 43.1928 20.7066 151° Southeast  Level Estimated
Tue 05:42:32 PM 43.1130 20.7671 151° Southeast  Level Estimated
Tue 05:43:32 PM 43.0332 20.8275 151° Southeast  Level Estimated
Tue 05:44:32 PM 42.9534 20.8878 151° Southeast  Level Estimated
Tue 05:45:32 PM 42.8735 20.9478 151° Southeast  Level Estimated
Tue 05:46:32 PM 42.7936 21.0078 151° Southeast  Level Estimated
Tue 05:47:32 PM 42.7136 21.0676 151° Southeast  Level Estimated
Tue 05:48:32 PM 42.6337 21.1272 151° Southeast  Level Estimated
Tue 05:49:32 PM 42.5537 21.1866 151° Southeast  Level Estimated
Tue 05:50:32 PM 42.4736 21.2460 151° Southeast  Level Estimated
Tue 05:51:32 PM 42.3936 21.3051 151° Southeast  Level Estimated
Tue 05:52:32 PM 42.3135 21.3641 151° Southeast  Level Estimated
Tue 05:53:32 PM 42.2334 21.4230 151° Southeast  Level Estimated
Tue 05:54:32 PM 42.1532 21.4817 152° Southeast  Level Estimated
Tue 05:55:32 PM 42.0730 21.5403 152° Southeast  Level Estimated
Tue 05:56:32 PM 41.9928 21.5987 152° Southeast  Level Estimated
Tue 05:57:32 PM 41.9126 21.6570 332° Northwest  Level Estimated
Tue 05:58:32 PM 41.9928 21.5987 152° Southeast  Level Estimated
Tue 05:59:32 PM 41.9126 21.6570 332° Northwest  Level Estimated
Tue 06:00:32 PM 41.9928 21.5987 152° Southeast  Level Estimated
Tue 06:01:32 PM 41.9126 21.6570 332° Northwest  Level Estimated
Tue 06:02:32 PM 41.9928 21.5987 152° Southeast  Level Estimated
Tue 06:03:32 PM 41.9126 21.6570 332° Northwest  Level Estimated
Tue 06:04:32 PM 41.9928 21.5987 152° Southeast  Level Estimated
Tue 06:05:32 PM 41.9126 21.6570 332° Northwest  Level Estimated
Tue 06:06:32 PM 41.9928 21.5987 152° Southeast  Level Estimated
Tue 06:07:32 PM 41.9126 21.6570 332° Northwest  Level Estimated
Tue 06:08:32 PM 41.9928 21.5987 332° Northwest  Level Estimated

Login

Don't have an account? Register now (free) for customized features, flight alerts, and more!